Time;durP1;ratioP1;P1;durP2;ratioP2;P2;SDS_P1;SDS_P2;PMS_P1;PMS_P2;Temp;Humidity;BMP_temperature;BMP_pressure;BME280_temperature;BME280_humidity;BME280_pressure;Samples;Min_cycle;Max_cycle;Signal;HPM_P1;HPM_P2
2021/04/24 00:02:05;;;;;;;1999.90;999.90;;;13.40;99.50;;;;;;5030819;28;20181;-43
2021/04/24 00:04:32;;;;;;;1999.90;999.90;;;13.40;99.50;;;;;;5030915;28;20757;-39
2021/04/24 00:06:59;;;;;;;1999.90;999.90;;;13.40;99.70;;;;;;5031174;28;20209;-39
2021/04/24 00:09:25;;;;;;;1999.90;999.90;;;13.40;99.40;;;;;;5030788;28;20173;-40
2021/04/24 00:11:52;;;;;;;1999.90;999.90;;;13.40;99.50;;;;;;5029497;28;20178;-43
2021/04/24 00:14:19;;;;;;;1999.90;999.90;;;13.40;99.80;;;;;;5030854;28;20181;-43
2021/04/24 00:16:46;;;;;;;1999.90;999.90;;;13.30;99.90;;;;;;5030727;28;20174;-39
2021/04/24 00:19:13;;;;;;;1999.90;999.90;;;13.30;99.90;;;;;;5030789;28;20177;-39
2021/04/24 00:21:40;;;;;;;1999.90;999.90;;;13.30;99.90;;;;;;5029474;28;20612;-40
2021/04/24 00:24:08;;;;;;;1999.90;999.90;;;13.30;99.90;;;;;;5030603;28;20222;-43
2021/04/24 00:26:34;;;;;;;1999.90;999.90;;;13.20;99.90;;;;;;5030671;28;20252;-42
2021/04/24 00:29:01;;;;;;;1999.90;999.90;;;13.20;99.90;;;;;;5029741;28;20230;-39
2021/04/24 00:31:28;;;;;;;1999.90;999.90;;;13.10;99.90;;;;;;5030471;28;20178;-42
2021/04/24 00:33:55;;;;;;;1999.90;999.90;;;13.00;99.90;;;;;;5030514;28;20198;-43
2021/04/24 00:36:22;;;;;;;1999.90;999.90;;;13.10;99.90;;;;;;5030523;28;20224;-40
2021/04/24 00:38:49;;;;;;;1999.90;999.90;;;13.10;99.90;;;;;;5030385;28;20174;-44
2021/04/24 00:41:16;;;;;;;1999.90;999.90;;;13.10;99.90;;;;;;5030377;28;20587;-43
2021/04/24 00:43:43;;;;;;;1999.90;999.90;;;13.10;99.90;;;;;;5030457;28;20170;-44
2021/04/24 00:46:13;;;;;;;1999.90;999.90;;;13.10;99.90;;;;;;5030517;28;20166;-44
2021/04/24 00:48:40;;;;;;;1999.90;999.90;;;13.10;99.90;;;;;;5030334;28;20525;-44
2021/04/24 00:51:08;;;;;;;1999.90;999.90;;;13.10;99.90;;;;;;5030273;28;20577;-44
2021/04/24 00:53:36;;;;;;;1999.90;999.90;;;13.20;99.90;;;;;;5030278;28;20169;-40
2021/04/24 00:56:04;;;;;;;1999.90;999.90;;;13.20;99.90;;;;;;5030271;28;20173;-39
2021/04/24 00:58:33;;;;;;;1999.90;999.90;;;13.20;99.90;;;;;;5030147;28;20181;-45
2021/04/24 01:01:01;;;;;;;1999.90;999.90;;;13.10;99.90;;;;;;5030004;28;20182;-45
2021/04/24 01:03:28;;;;;;;1999.90;999.90;;;13.10;99.90;;;;;;5029874;28;20182;-40
2021/04/24 01:05:55;;;;;;;1999.90;999.90;;;13.00;99.90;;;;;;5029730;28;20222;-40
2021/04/24 01:08:22;;;;;;;1999.90;999.90;;;13.10;99.90;;;;;;5030017;28;20174;-39
2021/04/24 01:10:49;;;;;;;1999.90;999.90;;;13.10;99.90;;;;;;5029713;28;20249;-39
2021/04/24 01:13:16;;;;;;;1999.90;999.90;;;13.00;99.80;;;;;;5030088;28;20249;-43
2021/04/24 01:15:45;;;;;;;1999.90;999.90;;;13.00;99.70;;;;;;5030076;28;20264;-39
2021/04/24 01:18:12;;;;;;;1999.90;999.90;;;13.00;99.70;;;;;;5029967;28;20162;-45
2021/04/24 01:20:40;;;;;;;1999.90;999.90;;;13.00;99.90;;;;;;5029681;28;20217;-41
2021/04/24 01:23:10;;;;;;;1999.90;999.90;;;13.00;99.90;;;;;;5029893;28;20177;-46
2021/04/24 01:25:43;;;;;;;1999.90;999.90;;;13.00;99.90;;;;;;5030063;28;20250;-40
2021/04/24 01:28:10;;;;;;;1999.90;999.90;;;13.00;99.90;;;;;;5029754;28;20165;-40
2021/04/24 01:30:40;;;;;;;1999.90;999.90;;;12.90;99.90;;;;;;5029771;28;20286;-41
2021/04/24 01:33:09;;;;;;;1999.90;999.90;;;12.90;99.90;;;;;;5029679;28;20194;-44
2021/04/24 01:35:38;;;;;;;1999.90;999.90;;;12.90;99.90;;;;;;5029543;28;20181;-39
2021/04/24 01:38:06;;;;;;;1999.90;999.90;;;12.90;99.90;;;;;;5029627;28;20187;-44
2021/04/24 01:40:34;;;;;;;1999.90;999.90;;;13.00;99.90;;;;;;5031855;28;20248;-43
2021/04/24 01:43:06;;;;;;;1999.90;999.90;;;12.90;99.90;;;;;;5033037;28;20256;-41
2021/04/24 01:45:34;;;;;;;1999.90;999.90;;;12.80;99.90;;;;;;5032929;28;20209;-43
2021/04/24 01:48:01;;;;;;;1999.90;999.90;;;12.80;99.90;;;;;;5032926;28;20224;-44
2021/04/24 01:50:40;;;;;;;1999.90;999.90;;;12.70;99.90;;;;;;5032901;28;20174;-43
2021/04/24 01:53:09;;;;;;;1999.90;999.90;;;12.80;99.90;;;;;;5032973;28;20164;-43
2021/04/24 01:55:39;;;;;;;1999.90;999.90;;;12.80;99.90;;;;;;5032743;28;20213;-42
2021/04/24 01:58:09;;;;;;;1999.90;999.90;;;12.80;99.90;;;;;;5032863;28;20181;-44
2021/04/24 02:00:49;;;;;;;1999.90;999.90;;;12.70;99.90;;;;;;5032777;28;20174;-45
2021/04/24 02:03:16;;;;;;;1999.90;999.90;;;12.80;99.90;;;;;;5032817;28;20166;-46
2021/04/24 02:05:47;;;;;;;1999.90;999.90;;;12.80;99.90;;;;;;5032673;28;20205;-45
2021/04/24 02:08:24;;;;;;;1999.90;999.90;;;12.80;99.90;;;;;;5032872;28;20520;-39
2021/04/24 02:10:54;;;;;;;1999.90;999.90;;;12.70;99.90;;;;;;5032367;28;20215;-39
2021/04/24 02:13:25;;;;;;;1999.90;999.90;;;12.80;99.90;;;;;;5032879;28;20214;-39
2021/04/24 02:15:52;;;;;;;1999.90;999.90;;;12.80;99.90;;;;;;5032666;28;20245;-39
2021/04/24 02:18:19;;;;;;;1999.90;999.90;;;12.80;99.90;;;;;;5032584;28;20181;-39
2021/04/24 02:20:47;;;;;;;1999.90;999.90;;;12.70;99.90;;;;;;5032245;28;20221;-40
2021/04/24 02:23:15;;;;;;;1999.90;999.90;;;12.70;99.90;;;;;;5032349;28;20182;-39
2021/04/24 02:25:46;;;;;;;1999.90;999.90;;;12.70;99.90;;;;;;5032326;28;20574;-44
2021/04/24 02:28:13;;;;;;;1999.90;999.90;;;12.70;99.90;;;;;;5032294;28;20178;-46
2021/04/24 02:30:43;;;;;;;1999.90;999.90;;;12.60;99.90;;;;;;5032249;28;20315;-42
2021/04/24 02:33:11;;;;;;;1999.90;999.90;;;12.60;99.90;;;;;;5032288;28;20166;-38
2021/04/24 02:35:48;;;;;;;1999.90;999.90;;;12.50;99.90;;;;;;5032210;28;20258;-42
2021/04/24 02:38:24;;;;;;;1999.90;999.90;;;12.50;99.90;;;;;;5032227;28;20166;-43
2021/04/24 02:40:53;;;;;;;1999.90;999.90;;;12.50;99.90;;;;;;5032331;28;20180;-39
2021/04/24 02:43:20;;;;;;;1999.90;999.90;;;12.50;99.90;;;;;;5032091;28;20174;-40
2021/04/24 02:45:47;;;;;;;1999.90;999.90;;;12.50;99.90;;;;;;5032169;28;20663;-40
2021/04/24 02:48:15;;;;;;;1999.90;999.90;;;12.40;99.90;;;;;;5032037;28;20180;-40
2021/04/24 02:50:42;;;;;;;1999.90;999.90;;;12.40;99.90;;;;;;5031932;28;20262;-43
2021/04/24 02:53:10;;;;;;;1999.90;999.90;;;12.50;99.90;;;;;;5031747;28;20197;-40
2021/04/24 02:55:37;;;;;;;1999.90;999.90;;;12.50;99.90;;;;;;5032099;28;20184;-38
2021/04/24 02:58:04;;;;;;;1999.90;999.90;;;12.60;99.90;;;;;;5032097;28;20224;-41
2021/04/24 03:00:31;;;;;;;1999.90;999.90;;;12.60;99.90;;;;;;5031946;28;20162;-39
2021/04/24 03:03:04;;;;;;;1999.90;999.90;;;12.60;99.90;;;;;;5031893;28;20174;-41
2021/04/24 03:05:31;;;;;;;1999.90;999.90;;;12.50;99.90;;;;;;5031608;28;20231;-39
2021/04/24 03:07:58;;;;;;;1999.90;999.90;;;12.50;99.90;;;;;;5031696;28;20228;-40
2021/04/24 03:10:25;;;;;;;1999.90;999.90;;;12.50;99.90;;;;;;5031870;28;20462;-40
2021/04/24 03:12:52;;;;;;;1999.90;999.90;;;12.50;99.90;;;;;;5031687;28;20268;-41
2021/04/24 03:15:20;;;;;;;1999.90;999.90;;;12.40;99.90;;;;;;5031667;28;20253;-44
2021/04/24 03:17:48;;;;;;;1999.90;999.90;;;12.50;99.90;;;;;;5031624;28;20686;-41
2021/04/24 03:20:16;;;;;;;1999.90;999.90;;;12.50;99.90;;;;;;5031514;28;20177;-41
2021/04/24 03:22:44;;;;;;;1999.90;999.90;;;12.50;99.90;;;;;;5031655;28;20182;-40
2021/04/24 03:25:12;;;;;;;1999.90;999.90;;;12.40;99.90;;;;;;5031602;28;20304;-40
2021/04/24 03:27:40;;;;;;;1999.90;999.90;;;12.40;99.90;;;;;;5031577;28;20173;-41
2021/04/24 03:30:09;;;;;;;1999.90;999.90;;;12.50;99.90;;;;;;5031518;28;20253;-42
2021/04/24 03:32:36;;;;;;;1999.90;999.90;;;12.40;99.90;;;;;;5031476;28;20526;-39
2021/04/24 03:35:04;;;;;;;1999.90;999.90;;;12.40;99.90;;;;;;5031343;28;20307;-42
2021/04/24 03:37:31;;;;;;;1999.90;999.90;;;12.40;99.90;;;;;;5031331;28;20204;-42
2021/04/24 03:39:58;;;;;;;1999.90;999.90;;;12.40;99.90;;;;;;5031417;28;20181;-41
2021/04/24 03:42:25;;;;;;;1999.90;999.90;;;12.40;99.90;;;;;;5031380;28;20166;-40
2021/04/24 03:44:52;;;;;;;1999.90;999.90;;;12.40;99.90;;;;;;5031159;28;20202;-44
2021/04/24 03:47:18;;;;;;;1999.90;999.90;;;12.40;99.90;;;;;;5031079;28;20173;-40
2021/04/24 03:49:45;;;;;;;1999.90;999.90;;;12.30;99.90;;;;;;5031146;28;20625;-44
2021/04/24 03:52:12;;;;;;;1999.90;999.90;;;12.40;99.90;;;;;;5031051;28;20177;-43
2021/04/24 03:54:39;;;;;;;1999.90;999.90;;;12.40;99.90;;;;;;5031066;28;20173;-39
2021/04/24 03:57:06;;;;;;;1999.90;999.90;;;12.30;99.90;;;;;;5031058;28;20166;-42
2021/04/24 03:59:33;;;;;;;1999.90;999.90;;;12.30;99.90;;;;;;5030952;28;20621;-43
2021/04/24 04:01:59;;;;;;;1999.90;999.90;;;12.40;99.90;;;;;;5031113;28;20166;-44
2021/04/24 04:04:26;;;;;;;1999.90;999.90;;;12.30;99.90;;;;;;5029725;28;20225;-44
2021/04/24 04:06:53;;;;;;;1999.90;999.90;;;12.40;99.90;;;;;;5030866;28;20170;-40
2021/04/24 04:09:20;;;;;;;1999.90;999.90;;;12.40;99.90;;;;;;5030780;28;20173;-44
2021/04/24 04:11:47;;;;;;;1999.90;999.90;;;12.40;99.90;;;;;;5030822;28;20173;-41
2021/04/24 04:14:13;;;;;;;1999.90;999.90;;;12.40;99.90;;;;;;5030765;28;20254;-39
2021/04/24 04:16:40;;;;;;;1999.90;999.90;;;12.30;99.90;;;;;;5030687;28;20166;-40
2021/04/24 04:19:07;;;;;;;1999.90;999.90;;;12.20;99.90;;;;;;5030704;28;20166;-45
2021/04/24 04:21:35;;;;;;;1999.90;999.90;;;12.30;99.90;;;;;;5030488;28;20221;-41
2021/04/24 04:24:02;;;;;;;1999.90;999.90;;;12.30;99.90;;;;;;5030471;28;20213;-40
2021/04/24 04:26:29;;;;;;;1999.90;999.90;;;12.20;99.90;;;;;;5030755;28;20162;-42
2021/04/24 04:28:57;;;;;;;1999.90;999.90;;;12.20;99.90;;;;;;5030580;28;20174;-47
2021/04/24 04:31:24;;;;;;;1999.90;999.90;;;12.20;99.90;;;;;;5030671;28;20182;-45
2021/04/24 04:33:50;;;;;;;1999.90;999.90;;;12.20;99.90;;;;;;5030493;28;20170;-44
2021/04/24 04:36:17;;;;;;;1999.90;999.90;;;12.10;99.90;;;;;;5030466;28;20158;-40
2021/04/24 04:38:44;;;;;;;1999.90;999.90;;;12.10;99.90;;;;;;5030371;28;20629;-41
2021/04/24 04:41:11;;;;;;;1999.90;999.90;;;12.00;99.90;;;;;;5030156;28;20174;-42
2021/04/24 04:43:38;;;;;;;1999.90;999.90;;;12.00;99.90;;;;;;5030204;28;20182;-40
2021/04/24 04:46:06;;;;;;;1999.90;999.90;;;12.00;99.90;;;;;;5030148;28;20676;-43
2021/04/24 04:48:33;;;;;;;1999.90;999.90;;;12.00;99.90;;;;;;5030346;28;20576;-41
2021/04/24 04:51:00;;;;;;;1999.90;999.90;;;11.90;99.90;;;;;;5030436;28;20170;-40
2021/04/24 04:53:27;;;;;;;1999.90;999.90;;;11.90;99.90;;;;;;5030172;28;20724;-47
2021/04/24 04:55:54;;;;;;;1999.90;999.90;;;12.00;99.90;;;;;;5030215;28;20181;-41
2021/04/24 04:58:21;;;;;;;1999.90;999.90;;;11.90;99.90;;;;;;5030357;28;20189;-46
2021/04/24 05:00:48;;;;;;;1999.90;999.90;;;11.90;99.90;;;;;;5030184;28;20173;-46
2021/04/24 05:03:14;;;;;;;1999.90;999.90;;;11.90;99.90;;;;;;5030158;28;20165;-44
2021/04/24 05:05:41;;;;;;;1999.90;999.90;;;11.90;99.90;;;;;;5029963;28;20233;-44
2021/04/24 05:08:08;;;;;;;1999.90;999.90;;;11.90;99.90;;;;;;5030157;28;20173;-40
2021/04/24 05:10:35;;;;;;;1999.90;999.90;;;11.90;99.90;;;;;;5030092;28;20175;-41
2021/04/24 05:13:02;;;;;;;1999.90;999.90;;;12.00;99.90;;;;;;5030070;28;20170;-39
2021/04/24 05:15:29;;;;;;;1999.90;999.90;;;12.00;99.90;;;;;;5029571;28;20189;-41
2021/04/24 05:17:56;;;;;;;1999.90;999.90;;;12.00;99.90;;;;;;5029799;28;20162;-40
2021/04/24 05:20:22;;;;;;;1999.90;999.90;;;12.00;99.90;;;;;;5029759;28;20229;-40
2021/04/24 05:22:50;;;;;;;1999.90;999.90;;;12.00;99.90;;;;;;5029965;28;20162;-44
2021/04/24 05:25:18;;;;;;;1999.90;999.90;;;11.90;99.90;;;;;;5029610;28;20209;-40
2021/04/24 05:27:47;;;;;;;1999.90;999.90;;;11.90;99.90;;;;;;5029670;28;20169;-40
2021/04/24 05:30:16;;;;;;;1999.90;999.90;;;12.10;99.90;;;;;;5029542;28;20312;-42
2021/04/24 05:32:43;;;;;;;1999.90;999.90;;;12.10;99.90;;;;;;5029929;28;20177;-40
2021/04/24 05:35:11;;;;;;;1999.90;999.90;;;12.10;99.90;;;;;;5029642;28;20169;-43
2021/04/24 05:37:38;;;;;;;1999.90;999.90;;;12.10;99.90;;;;;;5029798;28;20181;-41
2021/04/24 05:40:05;;;;;;;1999.90;999.90;;;12.10;99.90;;;;;;5029780;28;20616;-40
2021/04/24 05:42:33;;;;;;;1999.90;999.90;;;12.20;99.90;;;;;;5029492;28;20176;-41
2021/04/24 05:45:00;;;;;;;1999.90;999.90;;;12.30;99.90;;;;;;5028911;28;20289;-40
2021/04/24 05:47:28;;;;;;;1999.90;999.90;;;12.20;99.90;;;;;;5029068;28;20630;-44
2021/04/24 05:49:55;;;;;;;1999.90;999.90;;;12.20;99.90;;;;;;5029054;28;20166;-40
2021/04/24 05:52:22;;;;;;;1999.90;999.90;;;12.20;99.90;;;;;;5028892;28;20174;-44
2021/04/24 05:54:48;;;;;;;1999.90;999.90;;;12.20;99.90;;;;;;5028928;28;20192;-40
2021/04/24 05:57:15;;;;;;;1999.90;999.90;;;12.20;99.90;;;;;;5028701;28;20203;-40
2021/04/24 05:59:42;;;;;;;1999.90;999.90;;;12.20;99.90;;;;;;5028753;28;20166;-40
2021/04/24 06:02:09;;;;;;;1999.90;999.90;;;12.30;99.90;;;;;;5028901;28;20174;-44
2021/04/24 06:04:36;;;;;;;1999.90;999.90;;;12.40;99.90;;;;;;5028772;28;20327;-40
2021/04/24 06:07:04;;;;;;;1999.90;999.90;;;12.50;99.90;;;;;;5028749;28;20166;-40
2021/04/24 06:09:30;;;;;;;1999.90;999.90;;;12.60;99.90;;;;;;5028732;28;20170;-40
2021/04/24 06:11:57;;;;;;;1999.90;999.90;;;12.80;99.90;;;;;;5028636;28;20166;-45
2021/04/24 06:14:24;;;;;;;1999.90;999.90;;;12.80;99.90;;;;;;5028640;28;20173;-39
2021/04/24 06:16:51;;;;;;;1999.90;999.90;;;13.10;99.90;;;;;;5027383;28;20625;-39
2021/04/24 06:19:19;;;;;;;1999.90;999.90;;;13.20;99.90;;;;;;5028737;28;20269;-39
2021/04/24 06:21:46;;;;;;;1999.90;999.90;;;13.30;99.90;;;;;;5028315;28;20222;-41
2021/04/24 06:24:13;;;;;;;1999.90;999.90;;;13.50;99.90;;;;;;5028600;28;20197;-41
2021/04/24 06:26:40;;;;;;;1999.90;999.90;;;13.70;99.90;;;;;;5029610;28;20734;-39
2021/04/24 06:29:07;;;;;;;1999.90;999.90;;;13.80;99.90;;;;;;5031977;28;20170;-40
2021/04/24 06:31:33;;;;;;;1999.90;999.90;;;13.80;99.90;;;;;;5031874;28;20169;-40
2021/04/24 06:34:00;;;;;;;1999.90;999.90;;;13.90;99.90;;;;;;5031693;28;20257;-38
2021/04/24 06:36:27;;;;;;;1999.90;999.90;;;14.10;99.90;;;;;;5031798;28;20158;-39
2021/04/24 06:38:55;;;;;;;1999.90;999.90;;;14.20;99.90;;;;;;5031658;28;20478;-40
2021/04/24 06:41:22;;;;;;;1999.90;999.90;;;14.40;99.90;;;;;;5031510;28;20231;-41
2021/04/24 06:43:49;;;;;;;1999.90;999.90;;;14.50;99.90;;;;;;5031462;28;20260;-40
2021/04/24 06:46:15;;;;;;;1999.90;999.90;;;14.70;99.90;;;;;;5031537;28;20166;-40
2021/04/24 06:48:42;;;;;;;1999.90;999.90;;;14.80;99.90;;;;;;5031820;28;20159;-47
2021/04/24 06:51:09;;;;;;;1999.90;999.90;;;14.90;99.90;;;;;;5031540;28;20307;-45
2021/04/24 06:53:36;;;;;;;1999.90;999.90;;;15.10;99.90;;;;;;5031570;28;20166;-41
2021/04/24 06:56:03;;;;;;;1999.90;999.90;;;15.10;99.70;;;;;;5031647;28;20162;-48
2021/04/24 06:58:30;;;;;;;1999.90;999.90;;;15.20;99.50;;;;;;5031435;28;20169;-46
2021/04/24 07:00:57;;;;;;;1999.90;999.90;;;15.20;99.30;;;;;;5031463;28;20162;-40
2021/04/24 07:03:24;;;;;;;1999.90;999.90;;;15.20;99.10;;;;;;5031477;28;20236;-45
2021/04/24 07:05:51;;;;;;;1999.90;999.90;;;15.30;99.20;;;;;;5031299;28;20206;-41
2021/04/24 07:08:18;;;;;;;1999.90;999.90;;;15.30;99.30;;;;;;5031380;28;20174;-42
2021/04/24 07:10:45;;;;;;;1999.90;999.90;;;15.20;99.30;;;;;;5031566;28;20239;-42
2021/04/24 07:13:12;;;;;;;1999.90;999.90;;;15.30;99.40;;;;;;5031417;28;20170;-39
2021/04/24 07:15:39;;;;;;;1999.90;999.90;;;15.40;99.40;;;;;;5031114;28;20264;-39
2021/04/24 07:18:06;;;;;;;1999.90;999.90;;;15.50;99.00;;;;;;5031040;28;20167;-39
2021/04/24 07:20:33;;;;;;;1999.90;999.90;;;15.50;98.70;;;;;;5030848;28;20206;-40
2021/04/24 07:23:00;;;;;;;1999.90;999.90;;;15.60;98.60;;;;;;5031028;28;20303;-40
2021/04/24 07:25:27;;;;;;;1999.90;999.90;;;15.70;98.30;;;;;;5030825;28;20202;-40
2021/04/24 07:27:54;;;;;;;1999.90;999.90;;;15.80;98.20;;;;;;5030884;28;20204;-40
2021/04/24 07:30:22;;;;;;;1999.90;999.90;;;15.80;98.30;;;;;;5030867;28;20197;-40
2021/04/24 07:32:49;;;;;;;1999.90;999.90;;;16.00;97.90;;;;;;5030764;28;20173;-39
2021/04/24 07:35:16;;;;;;;1999.90;999.90;;;16.10;97.70;;;;;;5030989;28;20229;-39
2021/04/24 07:37:43;;;;;;;1999.90;999.90;;;16.30;97.10;;;;;;5030588;28;20162;-44
2021/04/24 07:40:13;;;;;;;1999.90;999.90;;;16.40;96.30;;;;;;5030627;28;20230;-39
2021/04/24 07:42:40;;;;;;;1999.90;999.90;;;16.60;96.30;;;;;;5030670;28;20162;-46
2021/04/24 07:45:08;;;;;;;1999.90;999.90;;;16.90;95.60;;;;;;5030469;28;20201;-42
2021/04/24 07:47:34;;;;;;;1999.90;999.90;;;17.00;94.40;;;;;;5030602;28;20181;-46
2021/04/24 07:50:01;;;;;;;1999.90;999.90;;;17.10;94.00;;;;;;5030393;28;20174;-41
2021/04/24 07:52:28;;;;;;;1999.90;999.90;;;17.20;93.80;;;;;;5030594;28;20265;-41
2021/04/24 07:54:55;;;;;;;1999.90;999.90;;;17.50;93.60;;;;;;5030396;28;20184;-42
2021/04/24 07:57:22;;;;;;;1999.90;999.90;;;17.70;93.00;;;;;;5030458;28;20185;-40
2021/04/24 07:59:49;;;;;;;1999.90;999.90;;;17.80;92.10;;;;;;5030651;28;20174;-39
2021/04/24 08:02:16;;;;;;;1999.90;999.90;;;18.00;92.10;;;;;;5030607;28;20170;-39
2021/04/24 08:04:43;;;;;;;1999.90;999.90;;;18.20;91.60;;;;;;5030139;28;20209;-43
2021/04/24 08:07:10;;;;;;;1999.90;999.90;;;18.50;90.80;;;;;;5030233;28;20186;-46
2021/04/24 08:09:37;;;;;;;1999.90;999.90;;;18.80;90.10;;;;;;5030277;28;20182;-39
2021/04/24 08:12:05;;;;;;;1999.90;999.90;;;19.10;88.60;;;;;;5030244;27;20532;-39
2021/04/24 08:14:32;;;;;;;1999.90;999.90;;;19.40;86.80;;;;;;5030200;28;20182;-45
2021/04/24 08:16:59;;;;;;;1999.90;999.90;;;19.40;85.60;;;;;;5029974;28;20541;-47
2021/04/24 08:19:27;;;;;;;1999.90;999.90;;;19.60;84.90;;;;;;5030087;28;20170;-44
2021/04/24 08:21:56;;;;;;;1999.90;999.90;;;19.80;83.90;;;;;;5029818;28;20699;-46
2021/04/24 08:24:23;;;;;;;1999.90;999.90;;;19.90;82.50;;;;;;5029924;28;20206;-39
2021/04/24 08:26:50;;;;;;;1999.90;999.90;;;20.00;82.20;;;;;;5030099;28;20222;-43
2021/04/24 08:29:17;;;;;;;1999.90;999.90;;;20.20;81.30;;;;;;5029960;28;20223;-38
2021/04/24 08:31:45;;;;;;;1999.90;999.90;;;20.60;79.10;;;;;;5029812;28;20260;-46
2021/04/24 08:34:12;;;;;;;1999.90;999.90;;;21.00;76.70;;;;;;5029846;28;20167;-40
2021/04/24 08:36:40;;;;;;;1999.90;999.90;;;21.20;76.20;;;;;;5029835;28;20166;-40
2021/04/24 08:39:08;;;;;;;1999.90;999.90;;;21.30;75.70;;;;;;5029709;28;20178;-39
2021/04/24 08:41:35;;;;;;;1999.90;999.90;;;21.30;75.40;;;;;;5029734;28;20170;-40
2021/04/24 08:44:02;;;;;;;1999.90;999.90;;;21.50;74.50;;;;;;5029494;28;20173;-40
2021/04/24 08:46:30;;;;;;;1999.90;999.90;;;21.70;73.40;;;;;;5029692;28;20223;-39
2021/04/24 08:48:57;;;;;;;1999.90;999.90;;;21.90;72.80;;;;;;5029147;28;20174;-44
2021/04/24 08:51:28;;;;;;;1999.90;999.90;;;22.20;71.00;;;;;;5029995;28;20166;-39
2021/04/24 08:53:59;;;;;;;1999.90;999.90;;;21.90;70.60;;;;;;5028212;28;20170;-40
2021/04/24 08:56:26;;;;;;;1999.90;999.90;;;21.80;70.00;;;;;;5029344;28;20174;-40
2021/04/24 08:58:54;;;;;;;1999.90;999.90;;;22.20;69.20;;;;;;5029698;28;20250;-43
2021/04/24 09:01:22;;;;;;;1999.90;999.90;;;22.40;68.60;;;;;;5029710;28;20218;-43
2021/04/24 09:03:49;;;;;;;1999.90;999.90;;;22.70;66.90;;;;;;5029616;28;20177;-40
2021/04/24 09:06:20;;;;;;;1999.90;999.90;;;22.90;65.20;;;;;;5028226;28;20224;-40
2021/04/24 09:09:03;;;;;;;1999.90;999.90;;;23.00;65.20;;;;;;5029486;28;20513;-39
2021/04/24 09:11:44;;;;;;;1999.90;999.90;;;23.20;63.60;;;;;;5029511;28;20546;-44
2021/04/24 09:14:13;;;;;;;1999.90;999.90;;;23.70;60.80;;;;;;5029459;28;20165;-40
2021/04/24 09:16:42;;;;;;;1999.90;999.90;;;23.30;60.20;;;;;;5029376;28;20180;-39
2021/04/24 09:19:38;;;;;;;1999.90;999.90;;;23.30;61.30;;;;;;5029388;28;20174;-39
2021/04/24 09:22:11;;;;;;;1999.90;999.90;;;23.80;60.60;;;;;;5029071;28;20235;-45
2021/04/24 09:24:39;;;;;;;1999.90;999.90;;;24.00;59.50;;;;;;5029227;28;20675;-45
2021/04/24 09:27:07;;;;;;;1999.90;999.90;;;24.20;58.50;;;;;;5029266;28;20261;-40
2021/04/24 09:29:34;;;;;;;1999.90;999.90;;;24.50;58.30;;;;;;5029281;28;20189;-39
2021/04/24 09:32:15;;;;;;;1999.90;999.90;;;24.70;56.40;;;;;;5029018;28;20253;-40
2021/04/24 09:34:45;;;;;;;1999.90;999.90;;;24.90;56.90;;;;;;5028918;28;20174;-42
2021/04/24 09:37:20;;;;;;;1999.90;999.90;;;24.90;56.50;;;;;;5028832;28;20170;-40
2021/04/24 09:39:52;;;;;;;1999.90;999.90;;;25.30;56.00;;;;;;5028837;28;20158;-43
2021/04/24 09:42:38;;;;;;;1999.90;999.90;;;25.30;55.30;;;;;;5028948;28;20639;-40
2021/04/24 09:45:29;;;;;;;1999.90;999.90;;;25.10;55.60;;;;;;5028916;28;20202;-41
2021/04/24 09:47:57;;;;;;;1999.90;999.90;;;25.20;55.20;;;;;;5027727;28;20166;-40
2021/04/24 09:50:32;;;;;;;1999.90;999.90;;;25.20;55.00;;;;;;5029061;28;20214;-40
2021/04/24 09:53:19;;;;;;;1999.90;999.90;;;25.40;54.40;;;;;;5029215;28;20644;-39
2021/04/24 09:55:47;;;;;;;1999.90;999.90;;;25.60;53.70;;;;;;5029005;28;20166;-38
2021/04/24 09:58:30;;;;;;;1999.90;999.90;;;25.70;53.70;;;;;;5028972;28;20163;-38
2021/04/24 10:01:16;;;;;;;1999.90;999.90;;;25.60;53.90;;;;;;5030430;28;20173;-40
2021/04/24 10:03:43;;;;;;;1999.90;999.90;;;25.80;53.50;;;;;;5032417;28;20625;-44
2021/04/24 10:06:43;;;;;;;1999.90;999.90;;;26.10;53.40;;;;;;5032116;28;20294;-43
2021/04/24 10:09:27;;;;;;;1999.90;999.90;;;26.30;51.90;;;;;;5032251;28;20214;-43
2021/04/24 10:12:08;;;;;;;1999.90;999.90;;;26.20;51.70;;;;;;5032176;28;20174;-44
2021/04/24 10:14:42;;;;;;;1999.90;999.90;;;26.30;51.50;;;;;;5032054;28;20195;-43
2021/04/24 10:17:14;;;;;;;1999.90;999.90;;;26.30;50.60;;;;;;5031711;28;20257;-39
2021/04/24 10:19:42;;;;;;;1999.90;999.90;;;26.20;50.90;;;;;;5031865;28;20216;-42
2021/04/24 10:22:11;;;;;;;1999.90;999.90;;;26.20;51.10;;;;;;5031958;28;20679;-39
2021/04/24 10:24:39;;;;;;;1999.90;999.90;;;26.10;51.00;;;;;;5031739;28;20215;-40
2021/04/24 10:27:07;;;;;;;1999.90;999.90;;;26.10;51.60;;;;;;5032002;28;20295;-40
2021/04/24 10:29:34;;;;;;;1999.90;999.90;;;26.20;50.40;;;;;;5030952;28;20181;-39
2021/04/24 10:32:02;;;;;;;1999.90;999.90;;;26.40;50.10;;;;;;5031990;28;20174;-39
2021/04/24 10:34:31;;;;;;;1999.90;999.90;;;26.30;49.50;;;;;;5032024;28;20227;-40
2021/04/24 10:36:57;;;;;;;1999.90;999.90;;;26.40;49.30;;;;;;5031844;28;20169;-44
2021/04/24 10:39:34;;;;;;;1999.90;999.90;;;26.40;49.60;;;;;;5031881;28;20201;-40
2021/04/24 10:42:24;;;;;;;1999.90;999.90;;;26.50;48.50;;;;;;5031952;28;20246;-41
2021/04/24 10:45:06;;;;;;;1999.90;999.90;;;26.60;48.50;;;;;;5031786;28;20201;-41
2021/04/24 10:50:12;;;;;;;1999.90;999.90;;;26.80;47.80;;;;;;5031731;28;20166;-40
2021/04/24 10:52:42;;;;;;;1999.90;999.90;;;27.00;48.00;;;;;;5031662;28;20307;-41
2021/04/24 10:55:28;;;;;;;1999.90;999.90;;;26.90;47.70;;;;;;5031697;28;20326;-40
2021/04/24 10:58:00;;;;;;;1999.90;999.90;;;27.20;46.90;;;;;;5031562;28;20225;-40
2021/04/24 11:00:30;;;;;;;1999.90;999.90;;;27.40;46.50;;;;;;5031469;28;20159;-39
2021/04/24 11:02:59;;;;;;;1999.90;999.90;;;27.50;45.50;;;;;;5031439;28;20522;-40
2021/04/24 11:05:31;;;;;;;1999.90;999.90;;;27.50;44.60;;;;;;5031151;28;20224;-39
2021/04/24 11:08:21;;;;;;;1999.90;999.90;;;27.40;44.70;;;;;;5031257;28;20166;-45
2021/04/24 11:11:02;;;;;;;1999.90;999.90;;;27.50;43.00;;;;;;5031310;28;20182;-41
2021/04/24 11:13:34;;;;;;;1999.90;999.90;;;27.70;43.10;;;;;;5030790;28;20521;-41
2021/04/24 11:16:03;;;;;;;1999.90;999.90;;;27.50;42.70;;;;;;5031665;28;20189;-41
2021/04/24 11:18:32;;;;;;;1999.90;999.90;;;27.70;42.10;;;;;;5031038;28;20184;-45
2021/04/24 11:21:22;;;;;;;1999.90;999.90;;;27.80;41.10;;;;;;5030900;28;20225;-41
2021/04/24 11:23:50;;;;;;;1999.90;999.90;;;27.90;40.90;;;;;;5029930;28;20178;-40
2021/04/24 11:26:32;;;;;;;1999.90;999.90;;;28.00;40.80;;;;;;5031064;28;20198;-40
2021/04/24 11:29:13;;;;;;;1999.90;999.90;;;28.10;41.50;;;;;;5031037;28;20197;-41
2021/04/24 11:31:56;;;;;;;1999.90;999.90;;;28.00;41.40;;;;;;5031188;28;20170;-40
2021/04/24 11:34:34;;;;;;;1999.90;999.90;;;27.90;41.50;;;;;;5030933;28;20504;-41
2021/04/24 11:37:23;;;;;;;1999.90;999.90;;;27.80;41.10;;;;;;5031032;28;20238;-40
2021/04/24 11:40:37;;;;;;;1999.90;999.90;;;27.80;41.10;;;;;;5030794;28;20159;-40
2021/04/24 11:43:06;;;;;;;1999.90;999.90;;;27.70;41.30;;;;;;5039375;28;20592;-41
2021/04/24 11:45:59;;;;;;;1999.90;999.90;;;27.60;40.90;;;;;;5030597;28;20201;-41
2021/04/24 11:48:46;;;;;;;1999.90;999.90;;;27.20;41.40;;;;;;5030803;28;20211;-40
2021/04/24 11:51:35;;;;;;;1999.90;999.90;;;26.80;41.20;;;;;;5030334;28;20182;-40
2021/04/24 11:54:03;;;;;;;1999.90;999.90;;;27.00;41.50;;;;;;5030564;28;20162;-40
2021/04/24 11:56:30;;;;;;;1999.90;999.90;;;26.90;41.30;;;;;;5030518;28;20254;-45
2021/04/24 11:58:58;;;;;;;1999.90;999.90;;;27.20;41.10;;;;;;5030460;28;20198;-41
2021/04/24 12:01:26;;;;;;;1999.90;999.90;;;27.60;40.00;;;;;;5030386;28;20174;-46
2021/04/24 12:03:53;;;;;;;1999.90;999.90;;;27.90;39.60;;;;;;5030225;28;20166;-46
2021/04/24 12:06:39;;;;;;;1999.90;999.90;;;27.70;38.90;;;;;;5030336;28;20205;-46
2021/04/24 12:09:11;;;;;;;1999.90;999.90;;;27.30;39.50;;;;;;5030075;28;20183;-40
2021/04/24 12:11:40;;;;;;;1999.90;999.90;;;27.10;39.60;;;;;;5030510;28;20199;-47
2021/04/24 12:14:07;;;;;;;1999.90;999.90;;;27.50;39.40;;;;;;5030569;28;20174;-40